createdAt,value
2018-08-31T00:50:35.059Z,95547.34
2018-08-31T00:55:38.771Z,95556.69
2018-08-31T02:32:42.015Z,95521.50
2018-08-31T02:37:45.362Z,95524.46
2018-08-31T02:42:48.708Z,95521.02
2018-08-31T03:50:59.542Z,95516.70
2018-08-31T03:56:02.874Z,95515.28
2018-08-31T04:35:36.236Z,95483.80
2018-08-31T04:40:39.580Z,95486.43
2018-08-31T04:45:50.388Z,95489.87
2018-08-31T04:50:53.724Z,95480.77
2018-08-31T04:55:57.055Z,95485.97
2018-08-31T05:01:00.385Z,95484.80
2018-08-31T05:06:03.725Z,95472.08
2018-08-31T05:11:09.620Z,95466.59
2018-08-31T05:16:17.978Z,95458.80
2018-08-31T05:21:21.314Z,95463.14
2018-08-31T05:32:25.615Z,95460.22
2018-08-31T05:37:28.951Z,95467.63
2018-08-31T05:42:48.678Z,95479.38
2018-08-31T05:47:52.023Z,95488.96
2018-08-31T05:52:55.353Z,95508.93
2018-08-31T05:57:59.449Z,95525.75
2018-08-31T06:03:02.791Z,95529.05
2018-08-31T06:08:06.894Z,95514.59
2018-08-31T06:13:10.234Z,95500.64
2018-08-31T06:18:14.331Z,95509.34
2018-08-31T06:23:17.666Z,95508.07
2018-08-31T06:28:21.006Z,95510.95
2018-08-31T07:02:11.631Z,95538.03
2018-08-31T07:07:14.978Z,95538.50
2018-08-31T07:12:18.356Z,95541.41
2018-08-31T08:03:23.821Z,95551.23
2018-08-31T08:08:27.163Z,95552.22
2018-08-31T08:13:30.493Z,95561.73
2018-08-31T09:04:36.332Z,95568.14
2018-08-31T09:09:39.724Z,95564.48
2018-08-31T09:14:43.194Z,95569.41
2018-08-31T10:05:45.943Z,95572.92
2018-08-31T10:10:49.320Z,95571.41
2018-08-31T11:01:56.021Z,95567.63
2018-08-31T11:06:59.358Z,95567.03
2018-08-31T11:12:02.710Z,95559.91
2018-08-31T12:03:05.248Z,95570.18
2018-08-31T12:08:08.584Z,95564.05
2018-08-31T12:13:11.911Z,95563.11
2018-08-31T13:04:15.773Z,95529.88
2018-08-31T13:09:19.107Z,95529.81
2018-08-31T13:14:25.679Z,95517.08
2018-08-31T14:05:30.099Z,95513.80
2018-08-31T14:10:34.208Z,95529.73
2018-08-31T14:50:08.047Z,95540.59
2018-08-31T14:55:11.378Z,95545.73
2018-08-31T15:00:14.715Z,95547.20
2018-08-31T15:05:18.070Z,95549.58
2018-08-31T15:10:22.174Z,95552.79
2018-08-31T15:15:25.512Z,95551.97
2018-08-31T15:20:29.613Z,95549.37
2018-08-31T15:25:32.961Z,95549.38
2018-08-31T15:30:37.078Z,95557.87
2018-08-31T15:35:40.432Z,95559.94
2018-08-31T15:40:43.806Z,95556.23
2018-08-31T15:45:50.975Z,95557.51
2018-08-31T15:50:54.339Z,95554.64
2018-08-31T15:55:58.466Z,95552.28
2018-08-31T16:01:01.937Z,95542.23
2018-08-31T16:06:05.326Z,95540.03
2018-08-31T16:11:08.725Z,95542.02
2018-08-31T16:16:12.082Z,95544.27
2018-08-31T16:21:15.698Z,95546.78
2018-08-31T16:26:19.133Z,95537.09
2018-08-31T16:31:22.773Z,95548.72
2018-08-31T16:36:27.266Z,95546.72
2018-08-31T16:41:30.917Z,95540.72
2018-08-31T16:46:35.237Z,95536.23
2018-08-31T16:51:38.594Z,95540.72
2018-08-31T16:56:45.430Z,95551.70
2018-08-31T17:01:48.814Z,95556.81
2018-08-31T17:06:52.151Z,95556.27
2018-08-31T17:11:55.490Z,95559.89
2018-08-31T17:16:58.978Z,95555.94
2018-08-31T17:22:02.214Z,95560.86
2018-08-31T17:27:05.557Z,95560.38
2018-08-31T17:37:38.595Z,95571.00
2018-08-31T17:42:42.701Z,95565.22
2018-08-31T17:47:46.046Z,95575.03
2018-08-31T17:52:50.150Z,95575.47
2018-08-31T17:57:54.451Z,95581.91
2018-08-31T18:02:57.783Z,95588.01
2018-08-31T18:08:01.147Z,95585.16
2018-08-31T18:13:08.860Z,95585.67
2018-08-31T18:18:18.262Z,95592.79
2018-08-31T18:23:25.538Z,95608.81
2018-08-31T18:28:28.884Z,95610.31
2018-08-31T18:33:37.077Z,95605.27
2018-08-31T18:38:42.135Z,95605.97
2018-08-31T18:43:47.825Z,95617.58
2018-08-31T18:48:51.172Z,95613.04
2018-08-31T18:53:59.019Z,95616.53
2018-08-31T18:59:04.360Z,95612.17
2018-08-31T19:04:09.951Z,95617.66
2018-08-31T19:09:15.453Z,95618.16
2018-08-31T19:14:23.391Z,95624.14
2018-08-31T19:19:30.529Z,95613.08
2018-08-31T19:24:35.226Z,95611.37
2018-08-31T19:29:42.115Z,95615.53
2018-08-31T19:34:50.344Z,95628.30
2018-08-31T19:39:56.245Z,95637.07
2018-08-31T19:45:00.337Z,95635.64
2018-08-31T19:50:03.666Z,95635.11
2018-08-31T19:55:07.018Z,95625.22
2018-08-31T20:00:10.355Z,95629.84
2018-08-31T20:05:13.909Z,95631.41
2018-08-31T20:10:18.329Z,95625.52
2018-08-31T20:15:21.702Z,95630.48
2018-08-31T20:20:25.035Z,95635.23
2018-08-31T20:25:28.392Z,95641.02
2018-08-31T20:30:31.728Z,95644.09
2018-08-31T20:35:35.075Z,95638.62
2018-08-31T20:40:38.409Z,95639.98
2018-08-31T20:45:41.761Z,95647.28
2018-08-31T20:50:45.864Z,95642.85
2018-08-31T20:55:49.207Z,95648.13
2018-08-31T21:00:52.537Z,95657.09
2018-08-31T21:06:01.120Z,95658.92
2018-08-31T21:11:04.454Z,95661.52
2018-08-31T21:16:07.798Z,95664.31
2018-08-31T21:21:11.128Z,95659.05
2018-08-31T21:26:14.464Z,95658.82
2018-08-31T21:31:17.844Z,95661.09
2018-08-31T21:36:21.933Z,95656.56
2018-08-31T21:41:25.264Z,95666.76
2018-08-31T21:46:30.376Z,95670.05
2018-08-31T21:51:33.715Z,95664.91
2018-08-31T21:56:52.189Z,95664.70
2018-08-31T22:01:56.291Z,95667.81
2018-08-31T22:06:59.626Z,95665.84
2018-08-31T22:12:02.966Z,95657.19
2018-08-31T22:17:06.301Z,95653.58
2018-08-31T22:22:09.634Z,95642.98
2018-08-31T22:27:12.983Z,95648.81
2018-08-31T22:32:17.476Z,95656.66
2018-08-31T22:37:20.839Z,95652.25
2018-08-31T22:42:24.968Z,95649.59
2018-08-31T22:47:28.300Z,95647.12
2018-08-31T22:52:32.394Z,95633.50
2018-08-31T22:57:35.743Z,95630.73
2018-08-31T23:02:39.073Z,95634.05
2018-08-31T23:07:42.409Z,95632.08
2018-08-31T23:12:45.766Z,95627.75
